Main page
Satellite images 15-day forecastsClimateMarine weather Cyclones Lightning AirportsFAQ Newsletter About
Weather : Europe Africa North America South America Asia Australia-Oceania Others
Languages Contact

San Fernando, Argentina

latitude: 34-27-11S, longitude: 058-35-23W, elevation: 3 m


METAR: SADF 242000Z 07008KT CAVOK 28/18 Q1013
TAF: SADF 241700Z 2418/2518 07010KT CAVOK TX30/2418Z TN18/2509Z BECMG 2422/2500 09005KT

Time: 17:30 (20:30 UTC)

Current weather observation

The report was made 30 minutes ago, at 20:00 UTC
Wind 8 kt from the East/Northeast
Temperature 28°C
Humidity 55%
Pressure 1013 hPa
Visibility 10 km or more
no clouds below 1500 m and no cumulonimbus

Change units

Forecast

The report was made 3 hours and 30 minutes ago, at 17:00 UTC
Forecast valid from 24 at 18 UTC to 25 at 18 UTC
Wind 10 kt from the East/Northeast
Visibility 10 km or more
no clouds below 1500 m and no cumulonimbus
Becoming
from 24 at 22 UTC to 25 at 00 UTC
Wind 5 kt from the East
The information on this site is subject to a disclaimer
Weather : Europe Africa North America South America Asia Australia-Oceania Others
Satellite images 15-day forecastsClimateMarine weather Cyclones Lightning AirportsFAQ Languages Contact Newsletter About